UATELBWN

Guest
Details From UATE - Aktau
To LBWN - Varna
Flight Number -
Tags Generated
Created
Modified
Stats Distance 1,011 nm / 1,872 km
Max Altitude 0 ft / 0 m
Waypoints 6
Social Downloads 0
Likes 0
Share VATSIM

Download

Looking for another format? Having issues loading an existing format? Contact us
Advertisement - Login to hide

Notes

Generated

Route

UATE NASTA LA DOLOT R1830 LBWN

ID Type Via Altitude Latitude Longitude Leg Dist Tot Dist Heading (true) Name
O UATE APT - 0 ft / 0 m 43.86648˚ 51.07808˚ - 0 nm - -
NASTA FIX - 0 ft / 0 m 44.00000˚ 45.21667˚ 253 nm 253 nm 274° / 270° -
LA NDB - 0 ft / 0 m 43.91667˚ 39.33333˚ 254 nm 507 nm 271° / 267° -
DOLOT FIX - 0 ft / 0 m 43.70137˚ 33.46846˚ 254 nm 762 nm 269° / 265° -
R1830 FIX - 0 ft / 0 m 43.23344˚ 27.80983˚ 248 nm 1010 nm 265° / 262° -
O LBWN APT - 0 ft / 0 m 43.23344˚ 27.80983˚ 0 nm 1010 nm 0° / 180° -

Altitude Profile

Advertisement - Login to hide

Weather


0- 5 10 15 20 25 30 35+ Temperature / ° C

Clouds and Precipitation
Forecast for 2017-12-16 12:00 UTC. Updated 35 minutes ago

Ground ~20,000 ft ~40,000 ft Winds

UATE

Details ICAO UATE (SCO)
Name AKTAU
Region Kazakhstan and Kyrgyzstan
Timezone Asia/Aqtau (UTC+5.0)
Stats Elevation 73 ft / 22 m (AMSL)
Location 43.860243° 51.091535°
Runways 2
Magnetic Variation 7.466° E

METAR

UATE 160730Z 12004MPS CAVOK M02/M09 Q1030 R12/0///70 NOSIG RMK QFE770/1027

Decode

TAF

TAF UATE 160501Z 1606/1706 12007MPS 9999 NSC TX02/1609Z TNM08/1701Z

Decode

Departure Runways

ID Width Length Bearing (true) Bearing (mag) Surface Threshold Offset Overrun Length
12 148 ft / 45 m 8,664 ft / 2,641 m 122.79° 115.32° Asphalt 0 ft / 0 m 820 ft / 250 m
12L 151 ft / 46 m 9,729 ft / 2,966 m 123.04° 115.57° Dirt 0 ft / 0 m 0 ft / 0 m
30 148 ft / 45 m 8,664 ft / 2,641 m 302.81° 295.34° Asphalt 0 ft / 0 m 171 ft / 52 m
30R 151 ft / 46 m 9,729 ft / 2,966 m 303.07° 295.60° Dirt 0 ft / 0 m 0 ft / 0 m

LBWN

Details ICAO LBWN (VAR)
Name Varna
Region Bulgaria
Timezone Europe/Sofia (UTC+2.0)
Stats Elevation 230 ft / 70 m (AMSL)
Location 43.232042° 27.825236°
Runways 1
Magnetic Variation 5.647° E

METAR

LBWN 160730Z 20006KT 160V240 CAVOK 15/09 Q1005 NOSIG

Decode

TAF

TAF LBWN 160500Z 1606/1706 14008KT 9999 SCT033 BECMG 1606/1608 21012KT TEMPO 1608/1616 21014G24KT BECMG 1616/1618 SCT025 BKN040 TEMPO 1618/1624 5000 RA BKN020 OVC040 BECMG 1700/1702 33018KT 5000 RA BKN015 OVC030

Decode

Destination Runways

ID Width Length Bearing (true) Bearing (mag) Surface Threshold Offset Overrun Length
09 180 ft / 55 m 8,254 ft / 2,516 m 97.11° 91.46° Concrete 350 ft / 107 m 0 ft / 0 m
27 180 ft / 55 m 8,254 ft / 2,516 m 277.13° 271.48° Concrete 350 ft / 107 m 0 ft / 0 m

Approach Navaids

Runway Type Ident Frequency Range Bearing (true) Bearing (mag) Slope Elevation
09 Localiser IWN 109.90 MHz 18 nm / 33 km 97.27° 91.62° - 230 ft / 70 m (AMSL)
09 Glidescope IWN 109.90 MHz 10 nm / 19 km 97.12° 91.48° 3.00° 230 ft / 70 m (AMSL)